KJXN/JXN METAR and TAF weather

Enter ICAO airport designator
Station Type Date Time Source
KJXN METAR 2019/04/19 09:56 UTC NOAA

KJXN 190956Z AUTO 34006KT 7SM -RA BKN010 OVC013 04/04 A2965 RMK AO2 SLP044 P0005 T00440039


Station Type Date Time Source
KJXN Decoded METAR 2019/04/19 09:56 UTC NOAA

JACKSON COUNTY-REYNOLDS, MI, United States (KJXN) 42-16N 084-28W
Apr 19, 2019 - 05:56 AM EDT / 2019.04.19 0956 UTC
Wind: from the NNW (340 degrees) at 7 MPH (6 KT):0
Visibility: 7 mile(s):0
Sky conditions: overcast
Weather: light rain
Precipitation last hour: 0.05 inches
Temperature: 39.9 F (4.4 C)
Dew Point: 39.0 F (3.9 C)
Relative Humidity: 96%
Pressure (altimeter): 29.65 in. Hg (1004 hPa)
ob: KJXN 190956Z AUTO 34006KT 7SM -RA BKN010 OVC013 04/04 A2965 RMK AO2 SLP044 P0005 T00440039
cycle: 10

Station Type Date Time Source
KJXN TAF 2019/04/19 08:04 UTC NOAA

TAF
AMD KJXN 190801Z 1908/2006 32010KT P6SM -RA OVC009
FM191200 36012G22KT 4SM -SHRA BR OVC008
FM192100 02017G28KT P6SM -RA OVC012
FM200100 01013KT P6SM VCSH BKN025

Example: see airport list